RYR4321 EHEH-LERS
Flight info
| Callsign | RYR4321 |
|---|---|
| Flight time | 1h 56m |
| Altitude | 37000 |
| Route | WOODY N872 MEDIL DCT KOVIN DCT DUCRA UM728 RESMI UN857 DISAK DCT DIRMO DCT VALKU DCT ATSUP DCT MINSO DCT DEGOL DCT PPG DCT ALBER P84 GIR |
| Aircraft | B38M/M-SADE3FGIJ1LRWYZ/SB1 |
Departure
| Time | 2026-05-09 16:56 |
|---|---|
| Airport | Eindhoven Airport (EHEH) |
Arrival
| Time | 2026-05-09 18:53 |
|---|---|
| Airport | Reus Airport (LERS) |
| Time | Latitude | Longitude | Altitude | Speed | Heading |
|---|---|---|---|---|---|
| 2026-05-09 16:23 | 51.45752 | 5.38938 | 77 ft | 0 kts | 124° |
| 2026-05-09 16:43 | 51.45765 | 5.38909 | 71 ft | 4 kts | 125° |
| 2026-05-09 16:43 | 51.45777 | 5.38881 | 66 ft | 3 kts | 126° |
| 2026-05-09 16:43 | 51.45795 | 5.38857 | 70 ft | 4 kts | 171° |
| 2026-05-09 16:43 | 51.45819 | 5.38864 | 74 ft | 4 kts | 212° |
| 2026-05-09 16:44 | 51.45823 | 5.38869 | 75 ft | 1 kts | 215° |
| 2026-05-09 16:48 | 51.45813 | 5.38858 | 73 ft | 4 kts | 215° |
| 2026-05-09 16:48 | 51.45790 | 5.38813 | 74 ft | 4 kts | 263° |
| 2026-05-09 16:49 | 51.45820 | 5.38725 | 68 ft | 14 kts | 304° |
| 2026-05-09 16:49 | 51.45896 | 5.38551 | 84 ft | 23 kts | 305° |
| 2026-05-09 16:49 | 51.45933 | 5.38461 | 84 ft | 7 kts | 306° |
| 2026-05-09 16:50 | 51.45993 | 5.38283 | 71 ft | 6 kts | 255° |
| 2026-05-09 16:50 | 51.45966 | 5.38240 | 74 ft | 8 kts | 217° |
| 2026-05-09 16:50 | 51.45906 | 5.38170 | 71 ft | 14 kts | 214° |
| 2026-05-09 16:50 | 51.45809 | 5.38063 | 75 ft | 19 kts | 214° |
| 2026-05-09 16:51 | 51.45694 | 5.37935 | 73 ft | 21 kts | 214° |
| 2026-05-09 16:51 | 51.45567 | 5.37794 | 73 ft | 23 kts | 214° |
| 2026-05-09 16:51 | 51.45430 | 5.37643 | 73 ft | 25 kts | 214° |
| 2026-05-09 16:51 | 51.45283 | 5.37480 | 75 ft | 27 kts | 215° |
| 2026-05-09 16:52 | 51.45137 | 5.37313 | 73 ft | 18 kts | 215° |
| 2026-05-09 16:52 | 51.45040 | 5.37201 | 72 ft | 11 kts | 216° |
| 2026-05-09 16:52 | 51.44972 | 5.37124 | 68 ft | 13 kts | 214° |
| 2026-05-09 16:52 | 51.44891 | 5.37035 | 69 ft | 15 kts | 214° |
| 2026-05-09 16:53 | 51.44798 | 5.36932 | 71 ft | 17 kts | 214° |
| 2026-05-09 16:53 | 51.44694 | 5.36813 | 75 ft | 19 kts | 216° |
| 2026-05-09 16:53 | 51.44578 | 5.36684 | 72 ft | 21 kts | 214° |
| 2026-05-09 16:53 | 51.44450 | 5.36542 | 71 ft | 23 kts | 215° |
| 2026-05-09 16:54 | 51.44316 | 5.36391 | 73 ft | 21 kts | 214° |
| 2026-05-09 16:54 | 51.44196 | 5.36259 | 75 ft | 19 kts | 214° |
| 2026-05-09 16:54 | 51.44106 | 5.36160 | 66 ft | 17 kts | 216° |
| 2026-05-09 16:54 | 51.44009 | 5.36071 | 72 ft | 12 kts | 176° |
| 2026-05-09 16:55 | 51.43951 | 5.36159 | 69 ft | 13 kts | 121° |
| 2026-05-09 16:55 | 51.43961 | 5.36272 | 71 ft | 8 kts | 39° |
| 2026-05-09 16:55 | 51.44046 | 5.36371 | 69 ft | 37 kts | 35° |
| 2026-05-09 16:55 | 51.44468 | 5.36844 | 76 ft | 108 kts | 35° |
| 2026-05-09 16:56 | 51.45246 | 5.37714 | 105 ft | 160 kts | 36° |
| 2026-05-09 16:56 | 51.46202 | 5.38793 | 636 ft | 170 kts | 36° |
| 2026-05-09 16:56 | 51.47149 | 5.39852 | 1515 ft | 164 kts | 36° |
| 2026-05-09 16:56 | 51.48127 | 5.40945 | 2022 ft | 182 kts | 36° |
| 2026-05-09 16:57 | 51.49227 | 5.42177 | 2366 ft | 204 kts | 36° |
| 2026-05-09 16:57 | 51.50456 | 5.43527 | 2698 ft | 224 kts | 31° |
| 2026-05-09 16:57 | 51.51951 | 5.44259 | 3322 ft | 228 kts | 1° |
| 2026-05-09 16:57 | 51.53464 | 5.43538 | 3996 ft | 235 kts | 326° |
| 2026-05-09 16:58 | 51.54512 | 5.41577 | 4840 ft | 232 kts | 292° |
| 2026-05-09 16:58 | 51.54715 | 5.39031 | 5619 ft | 235 kts | 259° |
| 2026-05-09 16:58 | 51.54145 | 5.36583 | 6385 ft | 236 kts | 248° |
| 2026-05-09 16:58 | 51.53572 | 5.34091 | 7110 ft | 239 kts | 251° |
| 2026-05-09 16:59 | 51.53013 | 5.31569 | 7852 ft | 241 kts | 250° |
| 2026-05-09 16:59 | 51.52445 | 5.29021 | 8603 ft | 243 kts | 250° |
| 2026-05-09 16:59 | 51.51885 | 5.26517 | 9324 ft | 246 kts | 250° |
| 2026-05-09 16:59 | 51.51302 | 5.23913 | 10051 ft | 249 kts | 250° |
| 2026-05-09 17:00 | 51.50716 | 5.21286 | 10708 ft | 253 kts | 252° |
| 2026-05-09 17:00 | 51.50507 | 5.18403 | 11069 ft | 271 kts | 278° |
| 2026-05-09 17:00 | 51.50975 | 5.15366 | 11393 ft | 290 kts | 284° |
| 2026-05-09 17:00 | 51.51510 | 5.12130 | 11717 ft | 310 kts | 284° |
| 2026-05-09 17:01 | 51.52083 | 5.08714 | 12140 ft | 324 kts | 284° |
| 2026-05-09 17:01 | 51.52679 | 5.05185 | 12809 ft | 328 kts | 284° |
| 2026-05-09 17:01 | 51.53280 | 5.01633 | 13570 ft | 332 kts | 284° |
| 2026-05-09 17:01 | 51.53890 | 4.98026 | 14263 ft | 337 kts | 284° |
| 2026-05-09 17:02 | 51.54506 | 4.94380 | 14970 ft | 340 kts | 284° |
| 2026-05-09 17:02 | 51.55129 | 4.90692 | 15673 ft | 344 kts | 284° |
| 2026-05-09 17:02 | 51.55710 | 4.86948 | 16364 ft | 347 kts | 277° |
| 2026-05-09 17:02 | 51.55634 | 4.83090 | 17052 ft | 348 kts | 258° |
| 2026-05-09 17:03 | 51.55155 | 4.79253 | 17687 ft | 353 kts | 258° |
| 2026-05-09 17:04 | 51.51440 | 4.51582 | 21665 ft | 372 kts | 257° |
| 2026-05-09 17:05 | 51.50639 | 4.47626 | 22189 ft | 375 kts | 242° |
| 2026-05-09 17:05 | 51.49093 | 4.44268 | 22723 ft | 378 kts | 224° |
| 2026-05-09 17:05 | 51.46945 | 4.41803 | 23214 ft | 383 kts | 208° |
| 2026-05-09 17:05 | 51.44561 | 4.39851 | 23700 ft | 387 kts | 208° |
| 2026-05-09 17:06 | 51.42135 | 4.37921 | 24132 ft | 390 kts | 207° |
| 2026-05-09 17:06 | 51.39686 | 4.36010 | 24561 ft | 394 kts | 207° |
| 2026-05-09 17:06 | 51.37204 | 4.34100 | 24977 ft | 397 kts | 207° |
| 2026-05-09 17:06 | 51.34703 | 4.32191 | 25405 ft | 400 kts | 207° |
| 2026-05-09 17:07 | 51.32178 | 4.30270 | 25815 ft | 404 kts | 207° |
| 2026-05-09 17:07 | 51.31319 | 4.29616 | 25957 ft | 405 kts | 207° |
| 2026-05-09 17:07 | 51.27065 | 4.26385 | 26630 ft | 410 kts | 207° |
| 2026-05-09 17:07 | 51.24486 | 4.24429 | 27023 ft | 413 kts | 207° |
| 2026-05-09 17:08 | 51.21876 | 4.22453 | 27407 ft | 416 kts | 207° |
| 2026-05-09 17:08 | 51.16597 | 4.18503 | 28158 ft | 423 kts | 203° |
| 2026-05-09 17:08 | 51.13790 | 4.17018 | 28522 ft | 426 kts | 200° |
| 2026-05-09 17:09 | 51.10968 | 4.15506 | 28871 ft | 430 kts | 200° |
| 2026-05-09 17:09 | 51.08136 | 4.13955 | 29239 ft | 432 kts | 201° |
| 2026-05-09 17:09 | 51.05288 | 4.12378 | 29589 ft | 435 kts | 201° |
| 2026-05-09 17:09 | 51.02415 | 4.10782 | 29920 ft | 438 kts | 201° |
| 2026-05-09 17:10 | 50.99526 | 4.09178 | 30229 ft | 441 kts | 201° |
| 2026-05-09 17:10 | 50.96622 | 4.07566 | 30530 ft | 443 kts | 201° |
| 2026-05-09 17:10 | 50.93702 | 4.05948 | 30829 ft | 445 kts | 201° |
| 2026-05-09 17:10 | 50.90774 | 4.04327 | 31125 ft | 447 kts | 201° |
| 2026-05-09 17:11 | 50.88823 | 4.03243 | 31315 ft | 448 kts | 202° |
| 2026-05-09 17:11 | 50.85933 | 4.01388 | 31619 ft | 449 kts | 205° |
| 2026-05-09 17:11 | 50.83038 | 3.99519 | 31904 ft | 451 kts | 204° |
| 2026-05-09 17:11 | 50.80118 | 3.97655 | 32181 ft | 453 kts | 204° |
| 2026-05-09 17:12 | 50.77184 | 3.95790 | 32466 ft | 455 kts | 204° |
| 2026-05-09 17:12 | 50.74242 | 3.93923 | 32764 ft | 457 kts | 204° |
| 2026-05-09 17:12 | 50.71284 | 3.92050 | 33032 ft | 459 kts | 204° |
| 2026-05-09 17:12 | 50.68314 | 3.90172 | 33295 ft | 461 kts | 204° |
| 2026-05-09 17:13 | 50.65334 | 3.88290 | 33595 ft | 462 kts | 205° |
| 2026-05-09 17:13 | 50.62354 | 3.86410 | 33988 ft | 461 kts | 205° |
| 2026-05-09 17:13 | 50.59383 | 3.84539 | 34310 ft | 460 kts | 205° |
| 2026-05-09 17:13 | 50.56438 | 3.82587 | 34616 ft | 458 kts | 207° |
| 2026-05-09 17:14 | 50.53523 | 3.80581 | 34937 ft | 457 kts | 206° |
| 2026-05-09 17:14 | 50.50608 | 3.78594 | 35278 ft | 456 kts | 206° |
| 2026-05-09 17:14 | 50.47701 | 3.76620 | 35604 ft | 454 kts | 206° |
| 2026-05-09 17:14 | 50.44801 | 3.74654 | 35912 ft | 453 kts | 206° |
| 2026-05-09 17:15 | 50.41910 | 3.72697 | 36215 ft | 452 kts | 206° |
| 2026-05-09 17:15 | 50.39025 | 3.70749 | 36536 ft | 451 kts | 206° |
| 2026-05-09 17:15 | 50.36151 | 3.68808 | 36825 ft | 449 kts | 206° |
| 2026-05-09 17:15 | 50.33281 | 3.66866 | 37034 ft | 450 kts | 206° |
| 2026-05-09 17:17 | 50.10473 | 3.51511 | 37006 ft | 445 kts | 206° |
| 2026-05-09 17:18 | 50.04788 | 3.47709 | 37000 ft | 444 kts | 206° |
| 2026-05-09 17:18 | 49.99109 | 3.43920 | 36993 ft | 444 kts | 206° |
| 2026-05-09 17:19 | 49.93472 | 3.40170 | 36993 ft | 443 kts | 206° |
| 2026-05-09 17:19 | 49.87809 | 3.36412 | 36997 ft | 443 kts | 207° |
| 2026-05-09 17:20 | 49.82153 | 3.32668 | 36990 ft | 442 kts | 207° |
| 2026-05-09 17:20 | 49.76507 | 3.28939 | 36989 ft | 441 kts | 207° |
| 2026-05-09 17:21 | 49.70862 | 3.25221 | 36993 ft | 440 kts | 207° |
| 2026-05-09 17:21 | 49.65246 | 3.21531 | 36986 ft | 440 kts | 207° |
| 2026-05-09 17:22 | 49.59608 | 3.17837 | 36985 ft | 439 kts | 207° |
| 2026-05-09 17:22 | 49.53995 | 3.14167 | 36986 ft | 438 kts | 207° |
| 2026-05-09 17:23 | 49.48424 | 3.10422 | 36974 ft | 434 kts | 214° |
| 2026-05-09 17:23 | 49.43410 | 3.05354 | 36974 ft | 431 kts | 217° |
| 2026-05-09 17:25 | 49.28417 | 2.90180 | 36973 ft | 429 kts | 217° |
| 2026-05-09 17:25 | 49.23488 | 2.85211 | 36972 ft | 429 kts | 217° |
| 2026-05-09 17:26 | 49.18506 | 2.80200 | 36965 ft | 428 kts | 217° |
| 2026-05-09 17:26 | 49.13530 | 2.75208 | 36961 ft | 428 kts | 217° |
| 2026-05-09 17:27 | 49.08560 | 2.70234 | 36973 ft | 427 kts | 217° |
| 2026-05-09 17:27 | 49.03603 | 2.65285 | 36970 ft | 426 kts | 216° |
| 2026-05-09 17:28 | 48.98651 | 2.60351 | 36961 ft | 425 kts | 216° |
| 2026-05-09 17:28 | 48.93694 | 2.55427 | 36965 ft | 425 kts | 216° |
| 2026-05-09 17:29 | 48.88764 | 2.50540 | 36968 ft | 424 kts | 216° |
| 2026-05-09 17:29 | 48.83814 | 2.45645 | 36963 ft | 423 kts | 216° |
| 2026-05-09 17:30 | 48.78878 | 2.40775 | 36968 ft | 422 kts | 216° |
| 2026-05-09 17:30 | 48.73952 | 2.35927 | 36966 ft | 422 kts | 216° |
| 2026-05-09 17:31 | 48.69030 | 2.31094 | 36964 ft | 421 kts | 216° |
| 2026-05-09 17:32 | 48.56851 | 2.19559 | 36942 ft | 423 kts | 203° |
| 2026-05-09 17:33 | 48.51097 | 2.17413 | 36941 ft | 428 kts | 197° |
| 2026-05-09 17:33 | 48.45294 | 2.15465 | 36942 ft | 427 kts | 196° |
| 2026-05-09 17:34 | 48.39572 | 2.13611 | 36931 ft | 426 kts | 195° |
| 2026-05-09 17:35 | 48.21960 | 2.11412 | 36921 ft | 434 kts | 176° |
| 2026-05-09 17:35 | 48.18968 | 2.12003 | 36929 ft | 434 kts | 176° |
| 2026-05-09 17:36 | 48.12988 | 2.13141 | 36919 ft | 430 kts | 182° |
| 2026-05-09 17:36 | 48.07020 | 2.13345 | 36913 ft | 430 kts | 182° |
| 2026-05-09 17:37 | 48.01045 | 2.13686 | 36909 ft | 429 kts | 181° |
| 2026-05-09 17:37 | 47.95081 | 2.14048 | 36910 ft | 429 kts | 181° |
| 2026-05-09 17:38 | 47.89125 | 2.14412 | 36909 ft | 428 kts | 181° |
| 2026-05-09 17:39 | 47.80202 | 2.14955 | 36909 ft | 428 kts | 181° |
| 2026-05-09 17:39 | 47.74262 | 2.15316 | 36911 ft | 427 kts | 181° |
| 2026-05-09 17:40 | 47.68331 | 2.15675 | 36908 ft | 426 kts | 181° |
| 2026-05-09 17:40 | 47.62415 | 2.16032 | 36908 ft | 425 kts | 181° |
| 2026-05-09 17:41 | 47.56500 | 2.16389 | 36902 ft | 425 kts | 181° |
| 2026-05-09 17:41 | 47.50592 | 2.16744 | 36901 ft | 424 kts | 181° |
| 2026-05-09 17:42 | 47.44692 | 2.17098 | 36902 ft | 424 kts | 181° |
| 2026-05-09 17:42 | 47.38800 | 2.17451 | 36903 ft | 423 kts | 181° |
| 2026-05-09 17:43 | 47.32914 | 2.17803 | 36902 ft | 423 kts | 181° |
| 2026-05-09 17:43 | 47.27032 | 2.18154 | 36898 ft | 423 kts | 181° |
| 2026-05-09 17:44 | 47.21153 | 2.18503 | 36902 ft | 423 kts | 181° |
| 2026-05-09 17:44 | 47.15285 | 2.18852 | 36899 ft | 422 kts | 181° |
| 2026-05-09 17:45 | 47.09422 | 2.19372 | 36883 ft | 425 kts | 171° |
| 2026-05-09 17:45 | 47.03812 | 2.22297 | 36902 ft | 430 kts | 163° |
| 2026-05-09 17:46 | 46.98265 | 2.25465 | 36906 ft | 431 kts | 162° |
| 2026-05-09 17:46 | 46.92704 | 2.28697 | 36904 ft | 427 kts | 162° |
| 2026-05-09 17:47 | 46.87222 | 2.31886 | 36906 ft | 423 kts | 162° |
| 2026-05-09 17:47 | 46.81753 | 2.35059 | 36910 ft | 423 kts | 162° |
| 2026-05-09 17:48 | 46.76285 | 2.38227 | 36904 ft | 423 kts | 162° |
| 2026-05-09 17:48 | 46.70812 | 2.41390 | 36900 ft | 423 kts | 162° |
| 2026-05-09 17:49 | 46.65338 | 2.44547 | 36895 ft | 423 kts | 162° |
| 2026-05-09 17:49 | 46.59869 | 2.47693 | 36895 ft | 423 kts | 162° |
| 2026-05-09 17:50 | 46.54389 | 2.50840 | 36895 ft | 423 kts | 162° |
| 2026-05-09 17:50 | 46.47103 | 2.55013 | 36895 ft | 423 kts | 163° |
| 2026-05-09 17:51 | 46.40700 | 2.58670 | 36898 ft | 423 kts | 163° |
| 2026-05-09 17:51 | 46.35222 | 2.61792 | 36895 ft | 423 kts | 163° |
| 2026-05-09 17:52 | 46.29742 | 2.64908 | 36902 ft | 423 kts | 163° |
| 2026-05-09 17:52 | 46.24265 | 2.68015 | 36898 ft | 423 kts | 163° |
| 2026-05-09 17:53 | 46.18786 | 2.71117 | 36900 ft | 423 kts | 163° |
| 2026-05-09 17:53 | 46.13312 | 2.74210 | 36904 ft | 422 kts | 163° |
| 2026-05-09 17:54 | 46.07839 | 2.77296 | 36904 ft | 422 kts | 163° |
| 2026-05-09 17:54 | 46.02360 | 2.80379 | 36907 ft | 423 kts | 163° |
| 2026-05-09 17:55 | 45.96862 | 2.83338 | 36906 ft | 422 kts | 164° |
| 2026-05-09 17:55 | 45.91358 | 2.86252 | 36915 ft | 422 kts | 164° |
| 2026-05-09 17:56 | 45.86776 | 2.88678 | 36911 ft | 422 kts | 164° |
| 2026-05-09 17:57 | 45.78512 | 2.93042 | 36912 ft | 422 kts | 164° |
| 2026-05-09 17:57 | 45.72909 | 2.95019 | 36912 ft | 409 kts | 184° |
| 2026-05-09 17:58 | 45.67191 | 2.95013 | 36912 ft | 411 kts | 184° |
| 2026-05-09 17:58 | 45.61480 | 2.94919 | 36922 ft | 410 kts | 184° |
| 2026-05-09 17:59 | 45.55782 | 2.94777 | 36930 ft | 410 kts | 184° |
| 2026-05-09 17:59 | 45.50090 | 2.94628 | 36936 ft | 409 kts | 184° |
| 2026-05-09 18:00 | 45.44408 | 2.94477 | 36947 ft | 408 kts | 184° |
| 2026-05-09 18:00 | 45.38772 | 2.94329 | 36945 ft | 407 kts | 184° |
| 2026-05-09 18:01 | 45.33114 | 2.94180 | 36954 ft | 407 kts | 184° |
| 2026-05-09 18:01 | 45.27454 | 2.94032 | 36956 ft | 407 kts | 184° |
| 2026-05-09 18:02 | 45.21799 | 2.93883 | 36962 ft | 406 kts | 184° |
| 2026-05-09 18:02 | 45.16149 | 2.93736 | 36957 ft | 406 kts | 184° |
| 2026-05-09 18:03 | 45.10504 | 2.93588 | 36959 ft | 406 kts | 184° |
| 2026-05-09 18:03 | 45.04850 | 2.93442 | 36968 ft | 406 kts | 184° |
| 2026-05-09 18:04 | 44.99193 | 2.93294 | 36967 ft | 407 kts | 184° |
| 2026-05-09 18:04 | 44.93534 | 2.93147 | 36970 ft | 407 kts | 184° |
| 2026-05-09 18:05 | 44.87872 | 2.93001 | 36967 ft | 407 kts | 184° |
| 2026-05-09 18:05 | 44.82213 | 2.92674 | 36965 ft | 407 kts | 185° |
| 2026-05-09 18:06 | 44.76562 | 2.92251 | 36976 ft | 407 kts | 185° |
| 2026-05-09 18:06 | 44.70897 | 2.91840 | 36969 ft | 407 kts | 185° |
| 2026-05-09 18:07 | 44.65239 | 2.91430 | 36974 ft | 407 kts | 185° |
| 2026-05-09 18:07 | 44.59581 | 2.91021 | 36972 ft | 407 kts | 185° |
| 2026-05-09 18:08 | 44.53922 | 2.90614 | 36966 ft | 407 kts | 185° |
| 2026-05-09 18:08 | 44.48318 | 2.90211 | 36957 ft | 406 kts | 185° |
| 2026-05-09 18:09 | 44.42622 | 2.89801 | 36964 ft | 407 kts | 185° |
| 2026-05-09 18:09 | 44.37018 | 2.89400 | 36959 ft | 405 kts | 185° |
| 2026-05-09 18:10 | 44.31378 | 2.88996 | 36965 ft | 406 kts | 185° |
| 2026-05-09 18:10 | 44.25743 | 2.88594 | 36957 ft | 405 kts | 185° |
| 2026-05-09 18:11 | 44.20118 | 2.88194 | 36964 ft | 405 kts | 185° |
| 2026-05-09 18:11 | 44.14501 | 2.87794 | 36960 ft | 404 kts | 184° |
| 2026-05-09 18:12 | 44.08889 | 2.87396 | 36960 ft | 404 kts | 184° |
| 2026-05-09 18:12 | 44.03285 | 2.86999 | 36953 ft | 403 kts | 184° |
| 2026-05-09 18:13 | 43.97684 | 2.86603 | 36945 ft | 403 kts | 184° |
| 2026-05-09 18:13 | 43.92079 | 2.86207 | 36945 ft | 403 kts | 184° |
| 2026-05-09 18:14 | 43.86475 | 2.85812 | 36946 ft | 403 kts | 184° |
| 2026-05-09 18:14 | 43.80880 | 2.85419 | 36942 ft | 403 kts | 184° |
| 2026-05-09 18:15 | 43.75270 | 2.85355 | 36950 ft | 403 kts | 180° |
| 2026-05-09 18:15 | 43.69655 | 2.85454 | 36943 ft | 404 kts | 181° |
| 2026-05-09 18:16 | 43.64037 | 2.85533 | 36951 ft | 404 kts | 181° |
| 2026-05-09 18:16 | 43.58413 | 2.85609 | 36944 ft | 404 kts | 181° |
| 2026-05-09 18:17 | 43.52800 | 2.85684 | 36938 ft | 404 kts | 180° |
| 2026-05-09 18:17 | 43.47164 | 2.85760 | 36948 ft | 405 kts | 180° |
| 2026-05-09 18:18 | 43.41527 | 2.85835 | 36947 ft | 405 kts | 180° |
| 2026-05-09 18:18 | 43.35884 | 2.85910 | 36944 ft | 406 kts | 180° |
| 2026-05-09 18:19 | 43.30237 | 2.85985 | 36949 ft | 406 kts | 180° |
| 2026-05-09 18:19 | 43.21765 | 2.86098 | 36948 ft | 406 kts | 180° |
| 2026-05-09 18:20 | 43.16146 | 2.86172 | 36951 ft | 406 kts | 180° |
| 2026-05-09 18:20 | 43.10510 | 2.86246 | 36959 ft | 406 kts | 180° |
| 2026-05-09 18:21 | 43.04801 | 2.86322 | 36955 ft | 406 kts | 180° |
| 2026-05-09 18:21 | 42.99185 | 2.86396 | 36955 ft | 406 kts | 180° |
| 2026-05-09 18:22 | 42.93534 | 2.86470 | 36953 ft | 404 kts | 180° |
| 2026-05-09 18:22 | 42.90770 | 2.86507 | 36769 ft | 391 kts | 180° |
| 2026-05-09 18:22 | 42.88094 | 2.86542 | 36687 ft | 378 kts | 180° |
| 2026-05-09 18:23 | 42.85502 | 2.86576 | 36433 ft | 369 kts | 180° |
| 2026-05-09 18:23 | 42.82927 | 2.86610 | 35954 ft | 373 kts | 180° |
| 2026-05-09 18:23 | 42.80321 | 2.86644 | 35425 ft | 376 kts | 179° |
| 2026-05-09 18:23 | 42.77704 | 2.86678 | 34942 ft | 376 kts | 179° |
| 2026-05-09 18:24 | 42.75096 | 2.86674 | 34466 ft | 373 kts | 183° |
| 2026-05-09 18:24 | 42.72523 | 2.86321 | 33978 ft | 371 kts | 184° |
| 2026-05-09 18:24 | 42.69954 | 2.86005 | 33504 ft | 368 kts | 184° |
| 2026-05-09 18:25 | 42.64904 | 2.85425 | 32614 ft | 361 kts | 184° |
| 2026-05-09 18:25 | 42.62414 | 2.85147 | 32185 ft | 357 kts | 184° |
| 2026-05-09 18:25 | 42.59947 | 2.84873 | 31758 ft | 354 kts | 184° |
| 2026-05-09 18:25 | 42.57497 | 2.84602 | 31337 ft | 352 kts | 184° |
| 2026-05-09 18:26 | 42.55069 | 2.84333 | 30929 ft | 349 kts | 184° |
| 2026-05-09 18:26 | 42.52657 | 2.84066 | 30524 ft | 347 kts | 184° |
| 2026-05-09 18:26 | 42.50256 | 2.83800 | 30130 ft | 345 kts | 184° |
| 2026-05-09 18:26 | 42.47880 | 2.83383 | 29608 ft | 345 kts | 194° |
| 2026-05-09 18:27 | 42.45724 | 2.82034 | 29155 ft | 347 kts | 213° |
| 2026-05-09 18:27 | 42.44503 | 2.80603 | 28934 ft | 346 kts | 224° |
| 2026-05-09 18:27 | 42.42596 | 2.77104 | 28483 ft | 346 kts | 232° |
| 2026-05-09 18:27 | 42.41275 | 2.74408 | 28086 ft | 352 kts | 233° |
| 2026-05-09 18:28 | 42.39928 | 2.71558 | 27687 ft | 356 kts | 234° |
| 2026-05-09 18:28 | 42.38611 | 2.68724 | 27315 ft | 355 kts | 234° |
| 2026-05-09 18:28 | 42.37308 | 2.65892 | 26939 ft | 354 kts | 234° |
| 2026-05-09 18:28 | 42.36047 | 2.63136 | 26574 ft | 352 kts | 235° |
| 2026-05-09 18:29 | 42.34740 | 2.60270 | 26193 ft | 349 kts | 235° |
| 2026-05-09 18:29 | 42.33471 | 2.57487 | 25827 ft | 347 kts | 235° |
| 2026-05-09 18:29 | 42.32208 | 2.54721 | 25459 ft | 344 kts | 235° |
| 2026-05-09 18:29 | 42.30956 | 2.51980 | 25105 ft | 342 kts | 235° |
| 2026-05-09 18:30 | 42.29707 | 2.49248 | 24748 ft | 340 kts | 235° |
| 2026-05-09 18:30 | 42.28469 | 2.46542 | 24395 ft | 338 kts | 235° |
| 2026-05-09 18:30 | 42.27238 | 2.43852 | 24051 ft | 336 kts | 236° |
| 2026-05-09 18:30 | 42.26013 | 2.41181 | 23697 ft | 334 kts | 236° |
| 2026-05-09 18:31 | 42.24792 | 2.38520 | 23321 ft | 332 kts | 236° |
| 2026-05-09 18:31 | 42.23578 | 2.35876 | 22931 ft | 330 kts | 236° |
| 2026-05-09 18:31 | 42.22374 | 2.33257 | 22572 ft | 327 kts | 236° |
| 2026-05-09 18:31 | 42.21181 | 2.30663 | 22236 ft | 323 kts | 236° |
| 2026-05-09 18:32 | 42.20002 | 2.28100 | 21903 ft | 319 kts | 236° |
| 2026-05-09 18:32 | 42.18837 | 2.25573 | 21576 ft | 316 kts | 236° |
| 2026-05-09 18:32 | 42.17695 | 2.23097 | 21253 ft | 313 kts | 237° |
| 2026-05-09 18:32 | 42.16552 | 2.20621 | 20947 ft | 310 kts | 237° |
| 2026-05-09 18:33 | 42.15418 | 2.18166 | 20619 ft | 307 kts | 237° |
| 2026-05-09 18:33 | 42.14294 | 2.15735 | 20298 ft | 304 kts | 237° |
| 2026-05-09 18:33 | 42.13182 | 2.13331 | 19989 ft | 301 kts | 237° |
| 2026-05-09 18:33 | 42.12079 | 2.10947 | 19680 ft | 299 kts | 237° |
| 2026-05-09 18:34 | 42.10980 | 2.08577 | 19367 ft | 296 kts | 237° |
| 2026-05-09 18:34 | 42.09886 | 2.06219 | 19060 ft | 300 kts | 237° |
| 2026-05-09 18:34 | 42.08773 | 2.03821 | 18746 ft | 304 kts | 237° |
| 2026-05-09 18:34 | 42.07649 | 2.01400 | 18438 ft | 305 kts | 237° |
| 2026-05-09 18:35 | 42.06524 | 1.98979 | 18088 ft | 304 kts | 238° |
| 2026-05-09 18:35 | 42.05405 | 1.96576 | 17758 ft | 302 kts | 238° |
| 2026-05-09 18:35 | 42.04296 | 1.94194 | 17436 ft | 299 kts | 238° |
| 2026-05-09 18:35 | 42.03200 | 1.91842 | 17121 ft | 296 kts | 237° |
| 2026-05-09 18:36 | 42.02113 | 1.89511 | 16814 ft | 292 kts | 238° |
| 2026-05-09 18:36 | 42.01038 | 1.87208 | 16515 ft | 289 kts | 237° |
| 2026-05-09 18:36 | 41.99973 | 1.84927 | 16215 ft | 288 kts | 237° |
| 2026-05-09 18:36 | 41.98897 | 1.82624 | 15902 ft | 293 kts | 237° |
| 2026-05-09 18:37 | 41.97819 | 1.80318 | 15601 ft | 297 kts | 237° |
| 2026-05-09 18:37 | 41.96715 | 1.77965 | 15290 ft | 298 kts | 236° |
| 2026-05-09 18:37 | 41.95308 | 1.75934 | 14904 ft | 299 kts | 216° |
| 2026-05-09 18:37 | 41.93626 | 1.74304 | 14607 ft | 296 kts | 216° |
| 2026-05-09 18:38 | 41.91968 | 1.72685 | 14317 ft | 294 kts | 216° |
| 2026-05-09 18:38 | 41.90316 | 1.71089 | 14017 ft | 291 kts | 216° |
| 2026-05-09 18:38 | 41.88687 | 1.69526 | 13712 ft | 289 kts | 215° |
| 2026-05-09 18:40 | 41.77492 | 1.58865 | 11573 ft | 283 kts | 214° |
| 2026-05-09 18:40 | 41.75875 | 1.57329 | 11269 ft | 287 kts | 214° |
| 2026-05-09 18:40 | 41.74241 | 1.55785 | 10957 ft | 288 kts | 212° |
| 2026-05-09 18:41 | 41.72416 | 1.54745 | 10679 ft | 285 kts | 190° |
| 2026-05-09 18:41 | 41.70472 | 1.54242 | 10470 ft | 285 kts | 190° |
| 2026-05-09 18:41 | 41.68529 | 1.53728 | 10248 ft | 285 kts | 189° |
| 2026-05-09 18:41 | 41.66587 | 1.53223 | 10001 ft | 284 kts | 189° |
| 2026-05-09 18:42 | 41.64651 | 1.52726 | 9748 ft | 283 kts | 189° |
| 2026-05-09 18:42 | 41.62720 | 1.52231 | 9479 ft | 282 kts | 189° |
| 2026-05-09 18:42 | 41.60796 | 1.51740 | 9222 ft | 281 kts | 189° |
| 2026-05-09 18:42 | 41.59499 | 1.51410 | 9052 ft | 280 kts | 189° |
| 2026-05-09 18:43 | 41.56970 | 1.50766 | 8731 ft | 279 kts | 189° |
| 2026-05-09 18:43 | 41.55679 | 1.50439 | 8566 ft | 279 kts | 189° |
| 2026-05-09 18:43 | 41.53763 | 1.50383 | 8282 ft | 275 kts | 168° |
| 2026-05-09 18:43 | 41.51916 | 1.50815 | 8053 ft | 271 kts | 169° |
| 2026-05-09 18:44 | 41.50028 | 1.51237 | 7814 ft | 272 kts | 169° |
| 2026-05-09 18:44 | 41.48156 | 1.51656 | 7590 ft | 273 kts | 168° |
| 2026-05-09 18:44 | 41.46284 | 1.52076 | 7353 ft | 273 kts | 169° |
| 2026-05-09 18:44 | 41.44435 | 1.52490 | 7115 ft | 273 kts | 169° |
| 2026-05-09 18:45 | 41.42541 | 1.52915 | 6879 ft | 272 kts | 169° |
| 2026-05-09 18:45 | 41.40680 | 1.53332 | 6635 ft | 269 kts | 169° |
| 2026-05-09 18:45 | 41.38848 | 1.53744 | 6403 ft | 265 kts | 168° |
| 2026-05-09 18:45 | 41.37047 | 1.54147 | 6162 ft | 261 kts | 168° |
| 2026-05-09 18:46 | 41.35268 | 1.54528 | 5991 ft | 255 kts | 173° |
| 2026-05-09 18:46 | 41.33536 | 1.54202 | 5734 ft | 253 kts | 202° |
| 2026-05-09 18:46 | 41.31983 | 1.53215 | 5530 ft | 248 kts | 205° |
| 2026-05-09 18:46 | 41.30439 | 1.52240 | 5318 ft | 244 kts | 204° |
| 2026-05-09 18:47 | 41.28919 | 1.51275 | 5130 ft | 237 kts | 204° |
| 2026-05-09 18:47 | 41.27469 | 1.50352 | 4938 ft | 229 kts | 204° |
| 2026-05-09 18:47 | 41.26034 | 1.49441 | 4698 ft | 228 kts | 204° |
| 2026-05-09 18:47 | 41.24622 | 1.48493 | 4459 ft | 226 kts | 213° |
| 2026-05-09 18:48 | 41.23637 | 1.46964 | 4203 ft | 221 kts | 242° |
| 2026-05-09 18:48 | 41.22983 | 1.45121 | 3990 ft | 212 kts | 248° |
| 2026-05-09 18:48 | 41.22453 | 1.43335 | 3778 ft | 204 kts | 249° |
| 2026-05-09 18:48 | 41.21952 | 1.41613 | 3598 ft | 199 kts | 250° |
| 2026-05-09 18:49 | 41.21457 | 1.39889 | 3424 ft | 198 kts | 250° |
| 2026-05-09 18:49 | 41.20967 | 1.38190 | 3260 ft | 197 kts | 249° |
| 2026-05-09 18:49 | 41.20477 | 1.36496 | 3045 ft | 196 kts | 249° |
| 2026-05-09 18:49 | 41.19990 | 1.34812 | 2819 ft | 195 kts | 249° |
| 2026-05-09 18:50 | 41.19506 | 1.33141 | 2581 ft | 192 kts | 249° |
| 2026-05-09 18:50 | 41.19039 | 1.31532 | 2362 ft | 180 kts | 249° |
| 2026-05-09 18:50 | 41.18602 | 1.30026 | 2122 ft | 172 kts | 249° |
| 2026-05-09 18:50 | 41.18177 | 1.28557 | 1889 ft | 170 kts | 249° |
| 2026-05-09 18:51 | 41.17754 | 1.27099 | 1664 ft | 170 kts | 249° |
| 2026-05-09 18:51 | 41.17330 | 1.25637 | 1431 ft | 169 kts | 250° |
| 2026-05-09 18:51 | 41.16909 | 1.24186 | 1204 ft | 168 kts | 249° |
| 2026-05-09 18:51 | 41.16498 | 1.22767 | 1005 ft | 158 kts | 249° |
| 2026-05-09 18:52 | 41.16109 | 1.21431 | 773 ft | 152 kts | 249° |
| 2026-05-09 18:52 | 41.15735 | 1.20141 | 567 ft | 149 kts | 249° |
| 2026-05-09 18:52 | 41.15365 | 1.18866 | 370 ft | 148 kts | 249° |
| 2026-05-09 18:52 | 41.15138 | 1.18082 | 259 ft | 146 kts | 249° |
| 2026-05-09 18:53 | 41.14857 | 1.17112 | 244 ft | 70 kts | 249° |
| 2026-05-09 18:53 | 41.14734 | 1.16689 | 244 ft | 43 kts | 249° |
| 2026-05-09 18:53 | 41.14628 | 1.16331 | 244 ft | 38 kts | 248° |
| 2026-05-09 18:53 | 41.14533 | 1.16012 | 244 ft | 36 kts | 249° |
| 2026-05-09 18:54 | 41.14578 | 1.15892 | 244 ft | 15 kts | 338° |
| 2026-05-09 18:54 | 41.14646 | 1.15849 | 244 ft | 7 kts | 303° |
| 2026-05-09 18:54 | 41.14656 | 1.15798 | 244 ft | 6 kts | 295° |
| 2026-05-09 18:54 | 41.14687 | 1.15769 | 244 ft | 6 kts | 335° |
| 2026-05-09 18:55 | 41.14723 | 1.15751 | 244 ft | 0 kts | 339° |